IAD weather

Washington Dulles International Airport
Washington, District of Columbia, United States

Public forecast

Using degrees Fahrenheit for public forecast. Weather courtesy of forecast.io.

METAR (pilot weather report)

Retrieved 2017/09/25 06:52 UTC (20 minutes ago):

KIAD 250652Z 31003KT 10SM FEW250 19/19 A3004 RMK AO2 SLP170 T01940189

TAF (pilot weather forecast)

Retrieved 2017/09/25 06:42 UTC (30 minutes ago):

TAF KIAD 250541Z 2506/2612 VRB03KT P6SM FEW200 FEW250 FM251100 VRB03KT 4SM BR FEW040 FEW250 FM251400 02004KT P6SM FEW045 FEW250 FM252000 08007KT P6SM FEW060 SCT250 FM260400 VRB03KT P6SM FEW045 SCT250